sensor_id;sensor_type;location;lat;lon;timestamp;P1;durP1;ratioP1;P2;durP2;ratioP2
24857;SDS011;12935;50.782;6.074;2023-06-24T00:01:20;30.67;;;13.73;;
24857;SDS011;12935;50.782;6.074;2023-06-24T00:03:47;36.67;;;14.97;;
24857;SDS011;12935;50.782;6.074;2023-06-24T00:06:13;31.10;;;14.30;;
24857;SDS011;12935;50.782;6.074;2023-06-24T00:08:43;35.17;;;15.07;;
24857;SDS011;12935;50.782;6.074;2023-06-24T00:11:10;25.73;;;13.27;;
24857;SDS011;12935;50.782;6.074;2023-06-24T00:13:35;41.93;;;15.67;;
24857;SDS011;12935;50.782;6.074;2023-06-24T00:16:01;39.03;;;14.30;;
24857;SDS011;12935;50.782;6.074;2023-06-24T00:18:26;28.13;;;13.70;;
24857;SDS011;12935;50.782;6.074;2023-06-24T00:20:54;17.07;;;12.43;;
24857;SDS011;12935;50.782;6.074;2023-06-24T00:23:21;42.77;;;15.47;;
24857;SDS011;12935;50.782;6.074;2023-06-24T00:25:54;32.87;;;15.03;;
24857;SDS011;12935;50.782;6.074;2023-06-24T00:28:20;27.27;;;14.50;;
24857;SDS011;12935;50.782;6.074;2023-06-24T00:30:46;37.23;;;15.43;;
24857;SDS011;12935;50.782;6.074;2023-06-24T00:33:12;38.10;;;15.20;;
24857;SDS011;12935;50.782;6.074;2023-06-24T00:35:38;28.33;;;13.80;;
24857;SDS011;12935;50.782;6.074;2023-06-24T00:38:04;39.87;;;15.50;;
24857;SDS011;12935;50.782;6.074;2023-06-24T00:40:29;29.07;;;12.83;;
24857;SDS011;12935;50.782;6.074;2023-06-24T00:42:55;22.77;;;13.10;;
24857;SDS011;12935;50.782;6.074;2023-06-24T00:45:21;32.83;;;13.77;;
24857;SDS011;12935;50.782;6.074;2023-06-24T00:47:47;40.57;;;14.77;;
24857;SDS011;12935;50.782;6.074;2023-06-24T00:50:14;34.90;;;14.20;;
24857;SDS011;12935;50.782;6.074;2023-06-24T00:52:40;31.80;;;13.67;;
24857;SDS011;12935;50.782;6.074;2023-06-24T00:55:11;38.83;;;13.03;;
24857;SDS011;12935;50.782;6.074;2023-06-24T00:57:40;37.43;;;14.60;;
24857;SDS011;12935;50.782;6.074;2023-06-24T01:00:07;32.63;;;13.70;;
24857;SDS011;12935;50.782;6.074;2023-06-24T01:02:36;32.73;;;13.73;;
24857;SDS011;12935;50.782;6.074;2023-06-24T01:05:02;42.70;;;14.43;;
24857;SDS011;12935;50.782;6.074;2023-06-24T01:07:31;25.20;;;13.00;;
24857;SDS011;12935;50.782;6.074;2023-06-24T01:09:57;39.83;;;14.17;;
24857;SDS011;12935;50.782;6.074;2023-06-24T01:12:22;27.53;;;13.40;;
24857;SDS011;12935;50.782;6.074;2023-06-24T01:14:48;36.57;;;14.40;;
24857;SDS011;12935;50.782;6.074;2023-06-24T01:17:19;46.73;;;15.77;;
24857;SDS011;12935;50.782;6.074;2023-06-24T01:31:00;33.80;;;13.67;;
24857;SDS011;12935;50.782;6.074;2023-06-24T01:33:43;31.30;;;14.67;;
24857;SDS011;12935;50.782;6.074;2023-06-24T01:36:25;28.70;;;14.10;;
24857;SDS011;12935;50.782;6.074;2023-06-24T01:38:54;33.07;;;12.40;;
24857;SDS011;12935;50.782;6.074;2023-06-24T01:41:24;30.57;;;12.77;;
24857;SDS011;12935;50.782;6.074;2023-06-24T01:43:52;41.90;;;15.77;;
24857;SDS011;12935;50.782;6.074;2023-06-24T01:46:22;50.93;;;13.63;;
24857;SDS011;12935;50.782;6.074;2023-06-24T01:48:49;51.90;;;15.53;;
24857;SDS011;12935;50.782;6.074;2023-06-24T01:51:19;27.80;;;12.67;;
24857;SDS011;12935;50.782;6.074;2023-06-24T01:53:49;32.40;;;14.03;;
24857;SDS011;12935;50.782;6.074;2023-06-24T01:56:17;28.27;;;13.93;;
24857;SDS011;12935;50.782;6.074;2023-06-24T01:58:45;21.37;;;11.10;;
24857;SDS011;12935;50.782;6.074;2023-06-24T02:01:12;34.07;;;15.37;;
24857;SDS011;12935;50.782;6.074;2023-06-24T02:03:38;28.47;;;12.47;;
24857;SDS011;12935;50.782;6.074;2023-06-24T02:06:06;50.13;;;15.10;;
24857;SDS011;12935;50.782;6.074;2023-06-24T02:08:34;28.00;;;13.50;;
24857;SDS011;12935;50.782;6.074;2023-06-24T02:11:01;28.13;;;12.37;;
24857;SDS011;12935;50.782;6.074;2023-06-24T02:13:27;26.00;;;12.10;;
24857;SDS011;12935;50.782;6.074;2023-06-24T02:15:57;58.83;;;14.93;;
24857;SDS011;12935;50.782;6.074;2023-06-24T02:18:25;44.53;;;14.57;;
24857;SDS011;12935;50.782;6.074;2023-06-24T02:20:52;22.53;;;13.10;;
24857;SDS011;12935;50.782;6.074;2023-06-24T02:23:18;35.93;;;12.83;;
24857;SDS011;12935;50.782;6.074;2023-06-24T02:25:45;24.10;;;11.83;;
24857;SDS011;12935;50.782;6.074;2023-06-24T02:28:11;50.67;;;14.73;;
24857;SDS011;12935;50.782;6.074;2023-06-24T02:30:37;30.20;;;12.00;;
24857;SDS011;12935;50.782;6.074;2023-06-24T02:33:04;28.93;;;12.70;;
24857;SDS011;12935;50.782;6.074;2023-06-24T02:35:30;31.80;;;12.90;;
24857;SDS011;12935;50.782;6.074;2023-06-24T02:37:55;30.00;;;14.33;;
24857;SDS011;12935;50.782;6.074;2023-06-24T02:40:20;23.83;;;14.03;;
24857;SDS011;12935;50.782;6.074;2023-06-24T02:42:46;22.27;;;11.93;;
24857;SDS011;12935;50.782;6.074;2023-06-24T02:45:11;35.27;;;15.07;;
24857;SDS011;12935;50.782;6.074;2023-06-24T02:47:37;28.43;;;13.37;;
24857;SDS011;12935;50.782;6.074;2023-06-24T02:50:04;34.30;;;11.90;;
24857;SDS011;12935;50.782;6.074;2023-06-24T02:52:33;26.83;;;11.50;;
24857;SDS011;12935;50.782;6.074;2023-06-24T02:55:02;29.27;;;12.70;;
24857;SDS011;12935;50.782;6.074;2023-06-24T02:57:27;26.70;;;12.33;;
24857;SDS011;12935;50.782;6.074;2023-06-24T02:59:53;40.90;;;14.57;;
24857;SDS011;12935;50.782;6.074;2023-06-24T03:02:18;41.70;;;14.90;;
24857;SDS011;12935;50.782;6.074;2023-06-24T03:04:44;30.40;;;12.53;;
24857;SDS011;12935;50.782;6.074;2023-06-24T03:07:10;42.30;;;14.00;;
24857;SDS011;12935;50.782;6.074;2023-06-24T03:09:36;24.57;;;11.63;;
24857;SDS011;12935;50.782;6.074;2023-06-24T03:12:01;23.63;;;11.63;;
24857;SDS011;12935;50.782;6.074;2023-06-24T03:14:27;33.30;;;13.13;;
24857;SDS011;12935;50.782;6.074;2023-06-24T03:16:52;36.00;;;13.63;;
24857;SDS011;12935;50.782;6.074;2023-06-24T03:19:17;36.47;;;14.73;;
24857;SDS011;12935;50.782;6.074;2023-06-24T03:21:43;36.93;;;14.23;;
24857;SDS011;12935;50.782;6.074;2023-06-24T03:24:08;37.90;;;13.93;;
24857;SDS011;12935;50.782;6.074;2023-06-24T03:26:39;31.37;;;13.27;;
24857;SDS011;12935;50.782;6.074;2023-06-24T03:29:05;45.67;;;15.00;;
24857;SDS011;12935;50.782;6.074;2023-06-24T03:31:32;32.47;;;12.57;;
24857;SDS011;12935;50.782;6.074;2023-06-24T03:33:57;27.60;;;12.77;;
24857;SDS011;12935;50.782;6.074;2023-06-24T03:36:23;34.83;;;14.70;;
24857;SDS011;12935;50.782;6.074;2023-06-24T03:38:49;43.40;;;15.20;;
24857;SDS011;12935;50.782;6.074;2023-06-24T03:41:14;28.47;;;13.00;;
24857;SDS011;12935;50.782;6.074;2023-06-24T03:43:40;26.60;;;13.37;;
24857;SDS011;12935;50.782;6.074;2023-06-24T03:46:06;53.13;;;15.10;;
24857;SDS011;12935;50.782;6.074;2023-06-24T03:48:32;40.30;;;13.50;;
24857;SDS011;12935;50.782;6.074;2023-06-24T03:50:58;35.00;;;13.47;;
24857;SDS011;12935;50.782;6.074;2023-06-24T03:53:23;33.57;;;13.00;;
24857;SDS011;12935;50.782;6.074;2023-06-24T03:55:48;36.27;;;12.80;;
24857;SDS011;12935;50.782;6.074;2023-06-24T03:58:14;25.37;;;12.30;;
24857;SDS011;12935;50.782;6.074;2023-06-24T04:00:41;26.63;;;13.13;;
24857;SDS011;12935;50.782;6.074;2023-06-24T04:03:09;44.87;;;14.70;;
24857;SDS011;12935;50.782;6.074;2023-06-24T04:05:34;32.23;;;13.03;;
24857;SDS011;12935;50.782;6.074;2023-06-24T04:08:00;38.60;;;13.83;;
24857;SDS011;12935;50.782;6.074;2023-06-24T04:10:26;36.03;;;13.03;;
24857;SDS011;12935;50.782;6.074;2023-06-24T04:12:51;37.70;;;13.70;;
24857;SDS011;12935;50.782;6.074;2023-06-24T04:15:16;26.40;;;14.00;;
24857;SDS011;12935;50.782;6.074;2023-06-24T04:17:42;44.97;;;12.90;;
24857;SDS011;12935;50.782;6.074;2023-06-24T04:20:07;31.43;;;15.13;;
24857;SDS011;12935;50.782;6.074;2023-06-24T04:22:36;27.80;;;12.20;;
24857;SDS011;12935;50.782;6.074;2023-06-24T04:25:03;52.90;;;16.93;;
24857;SDS011;12935;50.782;6.074;2023-06-24T04:27:30;34.10;;;14.37;;
24857;SDS011;12935;50.782;6.074;2023-06-24T04:29:56;40.90;;;13.97;;
24857;SDS011;12935;50.782;6.074;2023-06-24T04:32:21;31.73;;;13.60;;
24857;SDS011;12935;50.782;6.074;2023-06-24T04:34:46;32.20;;;12.57;;
24857;SDS011;12935;50.782;6.074;2023-06-24T04:37:12;36.93;;;15.27;;
24857;SDS011;12935;50.782;6.074;2023-06-24T04:39:37;26.80;;;12.17;;
24857;SDS011;12935;50.782;6.074;2023-06-24T04:42:03;43.20;;;14.27;;
24857;SDS011;12935;50.782;6.074;2023-06-24T04:44:29;25.90;;;12.07;;
24857;SDS011;12935;50.782;6.074;2023-06-24T04:46:54;39.90;;;16.57;;
24857;SDS011;12935;50.782;6.074;2023-06-24T04:49:19;27.27;;;14.50;;
24857;SDS011;12935;50.782;6.074;2023-06-24T04:51:44;49.37;;;15.07;;
24857;SDS011;12935;50.782;6.074;2023-06-24T04:54:10;36.83;;;13.73;;
24857;SDS011;12935;50.782;6.074;2023-06-24T04:56:37;32.50;;;14.43;;
24857;SDS011;12935;50.782;6.074;2023-06-24T04:59:02;62.23;;;16.70;;
24857;SDS011;12935;50.782;6.074;2023-06-24T05:01:28;52.63;;;17.37;;
24857;SDS011;12935;50.782;6.074;2023-06-24T05:03:53;35.93;;;13.80;;
24857;SDS011;12935;50.782;6.074;2023-06-24T05:06:18;28.17;;;13.90;;
24857;SDS011;12935;50.782;6.074;2023-06-24T05:08:43;30.50;;;13.20;;
24857;SDS011;12935;50.782;6.074;2023-06-24T05:11:09;38.93;;;13.87;;
24857;SDS011;12935;50.782;6.074;2023-06-24T05:13:34;36.10;;;15.40;;
24857;SDS011;12935;50.782;6.074;2023-06-24T05:15:59;23.20;;;11.37;;
24857;SDS011;12935;50.782;6.074;2023-06-24T05:18:25;47.90;;;15.90;;
24857;SDS011;12935;50.782;6.074;2023-06-24T05:20:50;56.70;;;17.30;;
24857;SDS011;12935;50.782;6.074;2023-06-24T05:23:15;25.10;;;13.10;;
24857;SDS011;12935;50.782;6.074;2023-06-24T05:25:41;34.87;;;13.70;;
24857;SDS011;12935;50.782;6.074;2023-06-24T05:28:06;41.77;;;14.00;;
24857;SDS011;12935;50.782;6.074;2023-06-24T05:30:31;37.17;;;14.27;;
24857;SDS011;12935;50.782;6.074;2023-06-24T05:32:56;49.53;;;17.23;;
24857;SDS011;12935;50.782;6.074;2023-06-24T05:35:22;43.50;;;15.53;;
24857;SDS011;12935;50.782;6.074;2023-06-24T05:37:47;43.43;;;14.90;;
24857;SDS011;12935;50.782;6.074;2023-06-24T05:40:12;43.93;;;15.27;;
24857;SDS011;12935;50.782;6.074;2023-06-24T05:42:38;28.20;;;13.77;;
24857;SDS011;12935;50.782;6.074;2023-06-24T05:45:04;36.53;;;14.80;;
24857;SDS011;12935;50.782;6.074;2023-06-24T05:47:31;30.67;;;14.20;;
24857;SDS011;12935;50.782;6.074;2023-06-24T05:49:57;45.57;;;16.20;;
24857;SDS011;12935;50.782;6.074;2023-06-24T05:52:22;26.93;;;13.20;;
24857;SDS011;12935;50.782;6.074;2023-06-24T05:54:47;47.80;;;14.93;;
24857;SDS011;12935;50.782;6.074;2023-06-24T05:57:12;46.63;;;16.53;;
24857;SDS011;12935;50.782;6.074;2023-06-24T05:59:38;39.90;;;15.87;;
24857;SDS011;12935;50.782;6.074;2023-06-24T06:02:03;37.73;;;14.33;;
24857;SDS011;12935;50.782;6.074;2023-06-24T06:04:28;30.60;;;12.63;;
24857;SDS011;12935;50.782;6.074;2023-06-24T06:06:54;28.60;;;14.40;;
24857;SDS011;12935;50.782;6.074;2023-06-24T06:09:19;33.20;;;15.80;;
24857;SDS011;12935;50.782;6.074;2023-06-24T06:11:45;25.43;;;13.47;;
24857;SDS011;12935;50.782;6.074;2023-06-24T06:14:11;33.17;;;17.23;;
24857;SDS011;12935;50.782;6.074;2023-06-24T06:16:36;36.90;;;15.13;;
24857;SDS011;12935;50.782;6.074;2023-06-24T06:19:01;36.23;;;15.53;;
24857;SDS011;12935;50.782;6.074;2023-06-24T06:21:27;29.57;;;15.93;;
24857;SDS011;12935;50.782;6.074;2023-06-24T06:23:52;52.37;;;15.67;;
24857;SDS011;12935;50.782;6.074;2023-06-24T06:26:17;41.63;;;15.53;;
24857;SDS011;12935;50.782;6.074;2023-06-24T06:28:43;37.97;;;16.43;;
24857;SDS011;12935;50.782;6.074;2023-06-24T06:31:08;39.10;;;15.00;;
24857;SDS011;12935;50.782;6.074;2023-06-24T06:33:33;34.37;;;15.97;;
24857;SDS011;12935;50.782;6.074;2023-06-24T06:35:59;24.13;;;14.50;;
24857;SDS011;12935;50.782;6.074;2023-06-24T06:38:24;35.70;;;15.37;;
24857;SDS011;12935;50.782;6.074;2023-06-24T06:40:50;31.00;;;13.77;;
24857;SDS011;12935;50.782;6.074;2023-06-24T06:43:15;28.83;;;13.43;;
24857;SDS011;12935;50.782;6.074;2023-06-24T06:45:41;37.73;;;16.60;;
24857;SDS011;12935;50.782;6.074;2023-06-24T06:48:06;30.77;;;14.67;;
24857;SDS011;12935;50.782;6.074;2023-06-24T06:50:32;27.07;;;15.67;;
24857;SDS011;12935;50.782;6.074;2023-06-24T06:52:59;25.30;;;14.17;;
24857;SDS011;12935;50.782;6.074;2023-06-24T06:55:24;35.93;;;15.43;;
24857;SDS011;12935;50.782;6.074;2023-06-24T06:57:49;63.87;;;15.53;;
24857;SDS011;12935;50.782;6.074;2023-06-24T07:00:15;29.77;;;15.77;;
24857;SDS011;12935;50.782;6.074;2023-06-24T07:02:40;54.43;;;17.50;;
24857;SDS011;12935;50.782;6.074;2023-06-24T07:05:06;34.73;;;14.40;;
24857;SDS011;12935;50.782;6.074;2023-06-24T07:07:31;27.80;;;15.50;;
24857;SDS011;12935;50.782;6.074;2023-06-24T07:09:57;56.13;;;17.73;;
24857;SDS011;12935;50.782;6.074;2023-06-24T07:12:23;45.57;;;18.00;;
24857;SDS011;12935;50.782;6.074;2023-06-24T07:14:48;34.10;;;16.93;;
24857;SDS011;12935;50.782;6.074;2023-06-24T07:17:14;31.20;;;15.23;;
24857;SDS011;12935;50.782;6.074;2023-06-24T07:19:40;29.17;;;15.40;;
24857;SDS011;12935;50.782;6.074;2023-06-24T07:22:05;32.50;;;17.03;;
24857;SDS011;12935;50.782;6.074;2023-06-24T07:24:30;28.80;;;14.10;;
24857;SDS011;12935;50.782;6.074;2023-06-24T07:26:56;36.73;;;16.10;;
24857;SDS011;12935;50.782;6.074;2023-06-24T07:29:21;28.27;;;16.30;;
24857;SDS011;12935;50.782;6.074;2023-06-24T07:31:46;30.70;;;16.13;;
24857;SDS011;12935;50.782;6.074;2023-06-24T07:34:11;39.00;;;16.10;;
24857;SDS011;12935;50.782;6.074;2023-06-24T07:36:37;30.33;;;16.80;;
24857;SDS011;12935;50.782;6.074;2023-06-24T07:39:02;47.27;;;18.50;;
24857;SDS011;12935;50.782;6.074;2023-06-24T07:41:28;35.53;;;17.53;;
24857;SDS011;12935;50.782;6.074;2023-06-24T07:43:53;27.93;;;17.13;;
24857;SDS011;12935;50.782;6.074;2023-06-24T07:46:20;41.73;;;17.77;;
24857;SDS011;12935;50.782;6.074;2023-06-24T07:48:45;40.77;;;17.17;;
24857;SDS011;12935;50.782;6.074;2023-06-24T07:51:10;47.53;;;16.57;;
24857;SDS011;12935;50.782;6.074;2023-06-24T07:53:35;30.93;;;16.97;;
24857;SDS011;12935;50.782;6.074;2023-06-24T07:56:01;47.90;;;19.67;;
24857;SDS011;12935;50.782;6.074;2023-06-24T07:58:26;43.23;;;18.23;;
24857;SDS011;12935;50.782;6.074;2023-06-24T08:00:51;41.07;;;18.37;;
24857;SDS011;12935;50.782;6.074;2023-06-24T08:03:17;35.90;;;17.33;;
24857;SDS011;12935;50.782;6.074;2023-06-24T08:05:42;48.57;;;19.60;;
24857;SDS011;12935;50.782;6.074;2023-06-24T08:08:08;62.47;;;20.50;;
24857;SDS011;12935;50.782;6.074;2023-06-24T08:10:33;28.33;;;16.13;;
24857;SDS011;12935;50.782;6.074;2023-06-24T08:12:58;43.97;;;18.10;;
24857;SDS011;12935;50.782;6.074;2023-06-24T08:15:24;30.33;;;17.17;;
24857;SDS011;12935;50.782;6.074;2023-06-24T08:17:52;37.90;;;18.67;;
24857;SDS011;12935;50.782;6.074;2023-06-24T08:20:22;30.73;;;16.40;;
24857;SDS011;12935;50.782;6.074;2023-06-24T08:22:48;40.67;;;17.50;;
24857;SDS011;12935;50.782;6.074;2023-06-24T08:25:14;42.50;;;18.53;;
24857;SDS011;12935;50.782;6.074;2023-06-24T08:27:39;34.60;;;17.33;;
24857;SDS011;12935;50.782;6.074;2023-06-24T08:30:05;55.77;;;19.60;;
24857;SDS011;12935;50.782;6.074;2023-06-24T08:32:31;38.07;;;18.17;;
24857;SDS011;12935;50.782;6.074;2023-06-24T08:34:57;23.77;;;16.03;;
24857;SDS011;12935;50.782;6.074;2023-06-24T08:37:22;49.13;;;19.13;;
24857;SDS011;12935;50.782;6.074;2023-06-24T08:39:47;56.53;;;19.13;;
24857;SDS011;12935;50.782;6.074;2023-06-24T08:42:13;30.73;;;17.30;;
24857;SDS011;12935;50.782;6.074;2023-06-24T08:44:39;35.03;;;16.90;;
24857;SDS011;12935;50.782;6.074;2023-06-24T08:47:04;42.10;;;16.57;;
24857;SDS011;12935;50.782;6.074;2023-06-24T08:49:30;24.90;;;16.87;;
24857;SDS011;12935;50.782;6.074;2023-06-24T08:54:28;25.67;;;16.97;;
24857;SDS011;12935;50.782;6.074;2023-06-24T08:56:55;33.50;;;16.97;;
24857;SDS011;12935;50.782;6.074;2023-06-24T08:59:21;35.93;;;17.40;;
24857;SDS011;12935;50.782;6.074;2023-06-24T09:01:46;38.50;;;18.03;;
24857;SDS011;12935;50.782;6.074;2023-06-24T09:04:12;37.17;;;18.40;;
24857;SDS011;12935;50.782;6.074;2023-06-24T09:06:37;20.70;;;16.07;;
24857;SDS011;12935;50.782;6.074;2023-06-24T09:09:03;48.77;;;19.67;;
24857;SDS011;12935;50.782;6.074;2023-06-24T09:11:28;29.37;;;17.00;;
24857;SDS011;12935;50.782;6.074;2023-06-24T09:13:54;36.23;;;18.70;;
24857;SDS011;12935;50.782;6.074;2023-06-24T09:16:21;27.10;;;16.90;;
24857;SDS011;12935;50.782;6.074;2023-06-24T09:18:49;50.10;;;18.17;;
24857;SDS011;12935;50.782;6.074;2023-06-24T09:21:26;30.40;;;17.03;;
24857;SDS011;12935;50.782;6.074;2023-06-24T09:23:55;31.80;;;16.73;;
24857;SDS011;12935;50.782;6.074;2023-06-24T09:26:24;38.03;;;17.87;;
24857;SDS011;12935;50.782;6.074;2023-06-24T09:28:52;32.50;;;15.93;;
24857;SDS011;12935;50.782;6.074;2023-06-24T09:31:17;37.37;;;19.73;;
24857;SDS011;12935;50.782;6.074;2023-06-24T09:33:44;27.67;;;16.80;;
24857;SDS011;12935;50.782;6.074;2023-06-24T09:36:14;34.63;;;17.67;;
24857;SDS011;12935;50.782;6.074;2023-06-24T09:38:40;33.60;;;17.13;;
24857;SDS011;12935;50.782;6.074;2023-06-24T09:41:06;38.43;;;17.50;;
24857;SDS011;12935;50.782;6.074;2023-06-24T09:43:34;28.57;;;17.13;;
24857;SDS011;12935;50.782;6.074;2023-06-24T09:46:05;43.93;;;17.80;;
24857;SDS011;12935;50.782;6.074;2023-06-24T09:48:32;33.13;;;17.17;;
24857;SDS011;12935;50.782;6.074;2023-06-24T09:51:01;37.93;;;17.07;;
24857;SDS011;12935;50.782;6.074;2023-06-24T09:53:32;35.27;;;18.43;;
24857;SDS011;12935;50.782;6.074;2023-06-24T09:55:59;31.00;;;17.27;;
24857;SDS011;12935;50.782;6.074;2023-06-24T09:58:28;31.43;;;16.40;;
24857;SDS011;12935;50.782;6.074;2023-06-24T10:00:56;23.73;;;16.37;;
24857;SDS011;12935;50.782;6.074;2023-06-24T10:03:26;47.40;;;17.90;;
24857;SDS011;12935;50.782;6.074;2023-06-24T10:05:52;29.30;;;17.23;;
24857;SDS011;12935;50.782;6.074;2023-06-24T10:08:17;28.43;;;17.50;;
24857;SDS011;12935;50.782;6.074;2023-06-24T10:10:43;33.83;;;16.77;;
24857;SDS011;12935;50.782;6.074;2023-06-24T10:13:09;40.93;;;18.70;;
24857;SDS011;12935;50.782;6.074;2023-06-24T10:15:34;34.87;;;18.07;;
24857;SDS011;12935;50.782;6.074;2023-06-24T10:18:03;40.30;;;18.87;;
24857;SDS011;12935;50.782;6.074;2023-06-24T10:20:57;23.87;;;16.93;;
24857;SDS011;12935;50.782;6.074;2023-06-24T10:23:28;36.87;;;17.67;;
24857;SDS011;12935;50.782;6.074;2023-06-24T10:25:55;36.60;;;18.60;;
24857;SDS011;12935;50.782;6.074;2023-06-24T10:28:20;27.83;;;16.30;;
24857;SDS011;12935;50.782;6.074;2023-06-24T10:30:55;31.80;;;16.83;;
24857;SDS011;12935;50.782;6.074;2023-06-24T10:33:24;20.83;;;15.93;;
24857;SDS011;12935;50.782;6.074;2023-06-24T10:35:50;26.10;;;16.90;;
24857;SDS011;12935;50.782;6.074;2023-06-24T10:38:16;38.00;;;18.90;;
24857;SDS011;12935;50.782;6.074;2023-06-24T10:40:42;26.80;;;18.17;;
24857;SDS011;12935;50.782;6.074;2023-06-24T10:45:49;23.40;;;17.47;;
24857;SDS011;12935;50.782;6.074;2023-06-24T10:48:16;33.47;;;18.53;;
24857;SDS011;12935;50.782;6.074;2023-06-24T10:50:44;31.90;;;17.00;;
24857;SDS011;12935;50.782;6.074;2023-06-24T10:53:10;34.70;;;17.77;;
24857;SDS011;12935;50.782;6.074;2023-06-24T10:55:37;29.97;;;16.47;;
24857;SDS011;12935;50.782;6.074;2023-06-24T10:58:08;38.53;;;17.80;;
24857;SDS011;12935;50.782;6.074;2023-06-24T11:00:35;24.67;;;18.17;;
24857;SDS011;12935;50.782;6.074;2023-06-24T11:03:13;23.97;;;15.77;;
24857;SDS011;12935;50.782;6.074;2023-06-24T11:05:43;29.53;;;17.77;;
24857;SDS011;12935;50.782;6.074;2023-06-24T11:08:10;31.00;;;17.17;;
24857;SDS011;12935;50.782;6.074;2023-06-24T11:10:45;22.33;;;15.97;;
24857;SDS011;12935;50.782;6.074;2023-06-24T11:13:12;43.03;;;19.47;;
24857;SDS011;12935;50.782;6.074;2023-06-24T11:15:38;25.80;;;18.30;;
24857;SDS011;12935;50.782;6.074;2023-06-24T11:18:06;28.40;;;18.97;;
24857;SDS011;12935;50.782;6.074;2023-06-24T11:20:36;31.40;;;17.97;;
24857;SDS011;12935;50.782;6.074;2023-06-24T11:23:08;33.73;;;16.93;;
24857;SDS011;12935;50.782;6.074;2023-06-24T11:25:39;34.67;;;17.90;;
24857;SDS011;12935;50.782;6.074;2023-06-24T11:28:11;36.03;;;17.20;;
24857;SDS011;12935;50.782;6.074;2023-06-24T11:30:37;27.60;;;17.27;;
24857;SDS011;12935;50.782;6.074;2023-06-24T11:33:03;36.47;;;17.83;;
24857;SDS011;12935;50.782;6.074;2023-06-24T11:35:28;44.47;;;19.57;;
24857;SDS011;12935;50.782;6.074;2023-06-24T11:37:57;32.10;;;18.67;;
24857;SDS011;12935;50.782;6.074;2023-06-24T11:40:23;48.77;;;20.33;;
24857;SDS011;12935;50.782;6.074;2023-06-24T11:42:48;40.77;;;18.67;;
24857;SDS011;12935;50.782;6.074;2023-06-24T11:45:19;29.23;;;17.20;;
24857;SDS011;12935;50.782;6.074;2023-06-24T11:47:45;35.67;;;18.23;;
24857;SDS011;12935;50.782;6.074;2023-06-24T11:50:10;35.43;;;18.10;;
24857;SDS011;12935;50.782;6.074;2023-06-24T11:55:38;30.37;;;17.90;;
24857;SDS011;12935;50.782;6.074;2023-06-24T12:00:39;24.37;;;16.10;;
24857;SDS011;12935;50.782;6.074;2023-06-24T12:03:10;31.67;;;17.90;;
24857;SDS011;12935;50.782;6.074;2023-06-24T12:05:37;41.07;;;19.57;;
24857;SDS011;12935;50.782;6.074;2023-06-24T12:08:05;28.47;;;18.67;;
24857;SDS011;12935;50.782;6.074;2023-06-24T12:10:32;28.00;;;17.73;;
24857;SDS011;12935;50.782;6.074;2023-06-24T12:12:59;34.80;;;19.00;;
24857;SDS011;12935;50.782;6.074;2023-06-24T12:15:25;33.80;;;18.27;;
24857;SDS011;12935;50.782;6.074;2023-06-24T12:17:51;33.23;;;18.83;;
24857;SDS011;12935;50.782;6.074;2023-06-24T12:20:16;25.10;;;17.60;;
24857;SDS011;12935;50.782;6.074;2023-06-24T12:22:43;33.27;;;18.30;;
24857;SDS011;12935;50.782;6.074;2023-06-24T12:25:09;28.63;;;18.13;;
24857;SDS011;12935;50.782;6.074;2023-06-24T12:27:35;34.00;;;17.70;;
24857;SDS011;12935;50.782;6.074;2023-06-24T12:30:00;30.70;;;17.90;;
24857;SDS011;12935;50.782;6.074;2023-06-24T12:32:26;38.40;;;18.00;;
24857;SDS011;12935;50.782;6.074;2023-06-24T12:34:52;33.97;;;18.07;;
24857;SDS011;12935;50.782;6.074;2023-06-24T12:37:17;37.17;;;17.13;;
24857;SDS011;12935;50.782;6.074;2023-06-24T12:39:43;48.30;;;21.20;;
24857;SDS011;12935;50.782;6.074;2023-06-24T12:42:09;20.33;;;15.93;;
24857;SDS011;12935;50.782;6.074;2023-06-24T12:44:34;32.30;;;17.07;;
24857;SDS011;12935;50.782;6.074;2023-06-24T12:47:00;29.87;;;17.33;;
24857;SDS011;12935;50.782;6.074;2023-06-24T12:49:25;23.43;;;16.00;;
24857;SDS011;12935;50.782;6.074;2023-06-24T12:51:51;32.93;;;18.67;;
24857;SDS011;12935;50.782;6.074;2023-06-24T12:54:17;24.03;;;14.93;;
24857;SDS011;12935;50.782;6.074;2023-06-24T12:56:42;29.27;;;16.93;;
24857;SDS011;12935;50.782;6.074;2023-06-24T12:59:08;50.33;;;19.60;;
24857;SDS011;12935;50.782;6.074;2023-06-24T13:01:33;39.23;;;19.27;;
24857;SDS011;12935;50.782;6.074;2023-06-24T13:03:59;25.67;;;16.60;;
24857;SDS011;12935;50.782;6.074;2023-06-24T13:06:24;29.80;;;16.90;;
24857;SDS011;12935;50.782;6.074;2023-06-24T13:08:49;32.77;;;18.73;;
24857;SDS011;12935;50.782;6.074;2023-06-24T13:11:15;37.50;;;18.73;;
24857;SDS011;12935;50.782;6.074;2023-06-24T13:13:40;53.90;;;18.87;;
24857;SDS011;12935;50.782;6.074;2023-06-24T13:16:05;35.83;;;19.37;;
24857;SDS011;12935;50.782;6.074;2023-06-24T13:18:30;26.97;;;16.40;;
24857;SDS011;12935;50.782;6.074;2023-06-24T13:20:56;26.20;;;17.23;;
24857;SDS011;12935;50.782;6.074;2023-06-24T13:23:21;21.77;;;15.67;;
24857;SDS011;12935;50.782;6.074;2023-06-24T13:25:47;26.00;;;17.17;;
24857;SDS011;12935;50.782;6.074;2023-06-24T13:28:12;32.70;;;16.90;;
24857;SDS011;12935;50.782;6.074;2023-06-24T13:30:38;39.47;;;18.00;;
24857;SDS011;12935;50.782;6.074;2023-06-24T13:33:03;30.53;;;16.73;;
24857;SDS011;12935;50.782;6.074;2023-06-24T13:35:28;32.80;;;16.77;;
24857;SDS011;12935;50.782;6.074;2023-06-24T13:37:54;29.27;;;17.20;;
24857;SDS011;12935;50.782;6.074;2023-06-24T13:40:19;39.33;;;18.37;;
24857;SDS011;12935;50.782;6.074;2023-06-24T13:42:44;30.27;;;15.37;;
24857;SDS011;12935;50.782;6.074;2023-06-24T13:45:10;38.10;;;16.43;;
24857;SDS011;12935;50.782;6.074;2023-06-24T13:47:36;37.73;;;16.73;;
24857;SDS011;12935;50.782;6.074;2023-06-24T13:50:02;30.43;;;17.83;;
24857;SDS011;12935;50.782;6.074;2023-06-24T13:52:28;26.77;;;15.40;;
24857;SDS011;12935;50.782;6.074;2023-06-24T13:54:53;34.30;;;17.57;;
24857;SDS011;12935;50.782;6.074;2023-06-24T13:57:19;27.77;;;15.60;;
24857;SDS011;12935;50.782;6.074;2023-06-24T13:59:44;38.57;;;17.70;;
24857;SDS011;12935;50.782;6.074;2023-06-24T14:02:09;30.40;;;16.20;;
24857;SDS011;12935;50.782;6.074;2023-06-24T14:04:36;42.07;;;18.00;;
24857;SDS011;12935;50.782;6.074;2023-06-24T14:07:02;35.43;;;18.20;;
24857;SDS011;12935;50.782;6.074;2023-06-24T14:09:29;48.17;;;20.30;;
24857;SDS011;12935;50.782;6.074;2023-06-24T14:11:55;33.97;;;18.50;;
24857;SDS011;12935;50.782;6.074;2023-06-24T14:14:20;28.73;;;18.63;;
24857;SDS011;12935;50.782;6.074;2023-06-24T14:16:46;54.60;;;21.13;;
24857;SDS011;12935;50.782;6.074;2023-06-24T14:19:11;31.37;;;18.07;;
24857;SDS011;12935;50.782;6.074;2023-06-24T14:21:37;30.23;;;16.97;;
24857;SDS011;12935;50.782;6.074;2023-06-24T14:24:03;33.03;;;18.57;;
24857;SDS011;12935;50.782;6.074;2023-06-24T14:26:31;43.43;;;19.30;;
24857;SDS011;12935;50.782;6.074;2023-06-24T14:28:57;50.50;;;20.47;;
24857;SDS011;12935;50.782;6.074;2023-06-24T14:31:22;32.80;;;19.60;;
24857;SDS011;12935;50.782;6.074;2023-06-24T14:33:47;30.93;;;19.27;;
24857;SDS011;12935;50.782;6.074;2023-06-24T14:36:12;32.43;;;19.10;;
24857;SDS011;12935;50.782;6.074;2023-06-24T14:38:38;30.67;;;19.80;;